createdAt,value
2018-03-18T06:22:34.763Z,77.90
2018-03-18T06:25:06.660Z,78.30
2018-03-18T06:27:38.547Z,78.00
2018-03-18T06:30:10.451Z,78.40
2018-03-18T06:32:42.327Z,79.50
2018-03-18T06:35:14.988Z,78.50
2018-03-18T06:37:46.874Z,78.30
2018-03-18T06:40:18.776Z,78.70
2018-03-18T06:42:50.656Z,78.70
2018-03-18T06:45:22.611Z,79.10
2018-03-18T06:47:54.502Z,79.20
2018-03-18T06:50:27.251Z,80.00
2018-03-18T06:52:59.475Z,79.90
2018-03-18T06:55:31.371Z,79.80
2018-03-18T06:58:03.253Z,81.00
2018-03-18T07:00:35.208Z,81.50
2018-03-18T07:03:07.100Z,81.60
2018-03-18T07:05:39.844Z,82.80
2018-03-18T07:08:11.809Z,82.80
2018-03-18T07:10:44.031Z,83.70
2018-03-18T07:13:15.930Z,84.30
2018-03-18T07:15:47.896Z,83.60
2018-03-18T07:18:19.856Z,84.20
2018-03-18T07:20:51.838Z,84.30
2018-03-18T07:23:24.769Z,83.80
2018-03-18T07:25:56.666Z,84.00
2018-03-18T07:28:28.625Z,85.20
2018-03-18T07:31:01.564Z,85.30
2018-03-18T07:33:33.467Z,85.30
2018-03-18T07:36:05.364Z,85.20
2018-03-18T07:38:38.070Z,83.40
2018-03-18T07:41:09.969Z,83.40
2018-03-18T07:43:41.941Z,83.40
2018-03-18T07:46:13.895Z,83.20
2018-03-18T07:48:45.790Z,83.80
2018-03-18T07:51:18.457Z,82.70
2018-03-18T07:53:50.331Z,82.60
2018-03-18T07:56:22.987Z,81.80
2018-03-18T07:58:54.871Z,81.80
2018-03-18T08:01:27.534Z,80.70
2018-03-18T08:04:00.448Z,80.30
2018-03-18T08:06:32.615Z,80.20
2018-03-18T08:09:04.500Z,80.10
2018-03-18T08:11:36.639Z,78.10
2018-03-18T08:14:08.549Z,77.00
2018-03-18T08:16:40.512Z,77.40
2018-03-18T08:19:12.395Z,75.80
2018-03-18T08:21:45.147Z,75.20
2018-03-18T08:24:17.027Z,75.10
2018-03-18T08:26:48.971Z,74.30
2018-03-18T08:29:21.191Z,75.10
2018-03-18T08:31:53.092Z,74.80
2018-03-18T08:34:25.055Z,74.80
2018-03-18T08:36:57.720Z,75.40
2018-03-18T08:39:29.616Z,75.20
2018-03-18T08:42:01.516Z,74.20
2018-03-18T08:44:33.408Z,74.70
2018-03-18T08:47:05.543Z,75.00
2018-03-18T08:49:37.443Z,75.80
2018-03-18T08:52:09.339Z,75.40
2018-03-18T08:54:42.088Z,74.50
2018-03-18T08:57:14.056Z,74.30
2018-03-18T08:59:45.932Z,72.00
2018-03-18T09:02:17.831Z,71.30
2018-03-18T09:04:49.719Z,71.80
2018-03-18T09:07:21.620Z,70.60
2018-03-18T09:09:54.800Z,68.80
2018-03-18T09:12:26.695Z,68.80
2018-03-18T09:14:58.593Z,69.80
2018-03-18T09:17:30.487Z,69.30
2018-03-18T09:20:03.139Z,69.80
2018-03-18T09:22:35.035Z,69.70
2018-03-18T09:25:07.683Z,68.90
2018-03-18T09:27:39.620Z,68.90
2018-03-18T09:30:11.532Z,69.90
2018-03-18T09:32:44.196Z,68.70
2018-03-18T09:35:16.075Z,68.60
2018-03-18T09:37:48.744Z,68.00
2018-03-18T09:40:20.633Z,68.00
2018-03-18T09:42:52.802Z,68.60
2018-03-18T09:45:24.683Z,67.30
2018-03-18T09:47:56.574Z,67.10
2018-03-18T09:50:28.481Z,68.80
2018-03-18T09:53:00.367Z,66.20
2018-03-18T09:55:32.243Z,64.30
2018-03-18T09:58:05.187Z,63.30
2018-03-18T10:00:37.068Z,63.20
2018-03-18T10:03:09.212Z,63.60
2018-03-18T10:05:41.089Z,61.70
2018-03-18T10:08:13.251Z,61.50
2018-03-18T10:10:45.390Z,61.00
2018-03-18T10:13:17.352Z,60.70
2018-03-18T10:15:49.240Z,59.90
2018-03-18T10:18:21.128Z,60.60
2018-03-18T10:20:53.007Z,61.40
2018-03-18T10:23:24.903Z,60.30
2018-03-18T10:25:56.787Z,61.50
2018-03-18T10:28:28.675Z,62.00
2018-03-18T10:31:00.555Z,61.20
2018-03-18T10:33:32.448Z,61.90
2018-03-18T10:36:04.328Z,62.40
2018-03-18T10:38:36.220Z,61.30
2018-03-18T10:41:09.152Z,60.50
2018-03-18T10:43:41.039Z,60.50
2018-03-18T10:46:12.924Z,60.70
2018-03-18T10:48:44.932Z,60.40
2018-03-18T10:51:16.755Z,59.70
2018-03-18T10:53:48.652Z,60.70
2018-03-18T10:56:20.523Z,59.50
2018-03-18T10:58:52.683Z,58.40
2018-03-18T11:01:24.556Z,59.30
2018-03-18T11:03:56.443Z,59.70
2018-03-18T11:06:28.567Z,59.40
2018-03-18T11:09:00.469Z,57.70
2018-03-18T11:11:32.335Z,57.80
2018-03-18T11:14:04.219Z,58.60
2018-03-18T11:16:36.092Z,57.80
2018-03-18T11:19:08.747Z,57.40
2018-03-18T11:21:40.623Z,57.40
2018-03-18T11:24:13.284Z,57.80
2018-03-18T11:26:45.159Z,57.80
2018-03-18T11:29:17.841Z,57.40
2018-03-18T11:31:50.931Z,57.70
2018-03-18T11:34:23.840Z,56.90
2018-03-18T11:36:55.716Z,56.90
2018-03-18T11:39:27.708Z,57.20
2018-03-18T11:41:59.579Z,57.20
2018-03-18T11:44:31.489Z,57.70
2018-03-18T11:47:03.442Z,56.70
2018-03-18T11:49:35.819Z,56.40
2018-03-18T11:52:07.706Z,57.10
2018-03-18T11:54:39.587Z,56.70
2018-03-18T11:57:11.540Z,56.90
2018-03-18T11:59:43.502Z,56.20
2018-03-18T12:02:16.895Z,55.90
2018-03-18T12:04:48.791Z,55.60
2018-03-18T12:07:21.594Z,56.10
2018-03-18T12:09:53.452Z,56.10
2018-03-18T12:12:25.322Z,56.20
2018-03-18T12:14:57.211Z,56.80
2018-03-18T12:17:29.116Z,56.10
2018-03-18T12:20:01.769Z,55.90
2018-03-18T12:22:33.644Z,55.90
2018-03-18T12:25:06.327Z,55.60
2018-03-18T12:27:38.976Z,55.50
2018-03-18T12:30:10.868Z,55.40
2018-03-18T12:32:43.570Z,55.70
2018-03-18T12:35:15.455Z,55.60
2018-03-18T12:37:47.333Z,55.70
2018-03-18T12:40:26.171Z,55.20
2018-03-18T12:43:09.976Z,54.90
2018-03-18T12:45:41.870Z,55.20
2018-03-18T12:48:13.822Z,54.50
2018-03-18T12:50:45.711Z,53.50
2018-03-18T12:53:18.480Z,52.90
2018-03-18T12:55:50.423Z,52.80
2018-03-18T12:58:22.303Z,52.90
2018-03-18T13:00:54.508Z,52.70
2018-03-18T13:03:26.381Z,52.40
2018-03-18T13:05:58.503Z,52.90
2018-03-18T13:08:30.448Z,53.00
2018-03-18T13:11:02.360Z,52.40
2018-03-18T13:13:34.259Z,52.20
2018-03-18T13:16:06.151Z,51.50
2018-03-18T13:18:38.795Z,52.00
2018-03-18T13:21:12.452Z,51.00
2018-03-18T13:23:44.355Z,51.80
2018-03-18T13:26:16.248Z,53.30
2018-03-18T13:28:48.891Z,51.60
2018-03-18T13:31:20.889Z,50.90
2018-03-18T13:33:52.753Z,51.60
2018-03-18T13:36:25.502Z,52.20
2018-03-18T13:38:57.627Z,51.60
2018-03-18T13:41:29.524Z,53.20
2018-03-18T13:44:01.400Z,52.60
2018-03-18T13:46:33.607Z,52.80
2018-03-18T13:49:05.535Z,52.70
2018-03-18T13:51:37.432Z,53.20
2018-03-18T13:54:09.315Z,52.50
2018-03-18T13:56:41.298Z,51.80
2018-03-18T13:59:13.598Z,53.40
2018-03-18T14:01:45.492Z,53.40
2018-03-18T14:04:17.395Z,52.40
2018-03-18T14:06:49.284Z,53.00
2018-03-18T14:09:21.923Z,54.10
2018-03-18T14:11:54.046Z,54.00
2018-03-18T14:14:25.925Z,54.00
2018-03-18T14:16:57.812Z,53.50
2018-03-18T14:19:29.931Z,52.60
2018-03-18T14:22:02.101Z,53.40
2018-03-18T14:24:33.975Z,52.20
2018-03-18T14:27:05.874Z,52.10
2018-03-18T14:29:37.881Z,52.40
2018-03-18T14:32:10.049Z,52.60
2018-03-18T14:34:42.216Z,53.90
2018-03-18T14:37:14.103Z,52.80
2018-03-18T14:39:45.975Z,52.60
2018-03-18T14:42:17.882Z,53.70
2018-03-18T14:44:49.771Z,52.70
2018-03-18T14:47:21.648Z,52.30
2018-03-18T14:49:53.527Z,52.30
2018-03-18T14:52:25.448Z,52.40
2018-03-18T14:54:57.326Z,52.70
2018-03-18T14:57:29.212Z,52.00
2018-03-18T15:00:01.083Z,51.90
2018-03-18T15:02:32.972Z,52.00
2018-03-18T15:05:04.857Z,53.30
2018-03-18T15:07:36.747Z,53.00
2018-03-18T15:10:08.657Z,52.90
2018-03-18T15:12:40.597Z,51.60
2018-03-18T15:15:13.242Z,51.00
2018-03-18T15:17:45.139Z,50.90
2018-03-18T15:20:17.773Z,51.60
2018-03-18T15:22:50.004Z,51.50
2018-03-18T15:25:21.880Z,51.50
2018-03-18T15:27:53.767Z,51.60
2018-03-18T15:30:25.674Z,51.70
2018-03-18T15:32:58.323Z,51.20
2018-03-18T15:35:30.210Z,51.20
2018-03-18T15:38:02.855Z,52.10
2018-03-18T15:40:34.963Z,52.10
2018-03-18T15:43:06.851Z,52.00
2018-03-18T15:45:38.729Z,51.80
2018-03-18T15:48:10.640Z,51.30
2018-03-18T15:50:43.527Z,52.60
2018-03-18T15:53:15.416Z,52.60
2018-03-18T15:55:47.288Z,51.90
2018-03-18T15:58:19.219Z,52.40
2018-03-18T16:00:51.116Z,52.80
2018-03-18T16:03:23.000Z,52.70
2018-03-18T16:05:54.871Z,52.50
2018-03-18T16:08:27.775Z,52.50
2018-03-18T16:10:59.648Z,52.50
2018-03-18T16:13:31.536Z,52.00
2018-03-18T16:16:03.415Z,52.60
2018-03-18T16:18:35.304Z,52.40
2018-03-18T16:21:07.947Z,52.40
2018-03-18T16:23:39.828Z,52.40
2018-03-18T16:26:12.463Z,52.80
2018-03-18T16:28:44.351Z,52.20
2018-03-18T16:31:17.033Z,52.30
2018-03-18T16:33:49.030Z,52.30
2018-03-18T16:36:20.900Z,52.10
2018-03-18T16:38:52.804Z,50.90
2018-03-18T16:41:24.686Z,51.30
2018-03-18T16:43:56.588Z,51.90
2018-03-18T16:46:28.472Z,51.70
2018-03-18T16:49:00.696Z,51.90
2018-03-18T16:51:32.575Z,51.60
2018-03-18T16:54:04.724Z,51.80
2018-03-18T16:56:36.894Z,51.70
2018-03-18T16:59:08.787Z,52.90
2018-03-18T17:01:40.655Z,52.20
2018-03-18T17:04:12.573Z,52.10
2018-03-18T17:06:44.444Z,52.50
2018-03-18T17:09:16.602Z,52.90
2018-03-18T17:11:48.474Z,52.20
2018-03-18T17:14:20.633Z,52.40
2018-03-18T17:16:52.495Z,52.20
2018-03-18T17:19:24.425Z,52.30
2018-03-18T17:21:57.329Z,53.20
2018-03-18T17:24:29.216Z,53.20
2018-03-18T17:27:01.094Z,53.10
2018-03-18T17:29:32.978Z,53.50
2018-03-18T17:32:04.864Z,53.70
2018-03-18T17:34:37.522Z,53.50
2018-03-18T17:37:10.159Z,53.30
2018-03-18T17:39:42.051Z,53.20
2018-03-18T17:42:13.925Z,53.20
2018-03-18T17:44:58.580Z,52.40
2018-03-18T17:47:43.239Z,52.30
2018-03-18T17:50:24.749Z,52.00
2018-03-18T17:53:08.667Z,52.50
2018-03-18T17:55:41.415Z,52.20
2018-03-18T17:58:13.764Z,52.20
2018-03-18T18:00:45.754Z,52.00
2018-03-18T18:03:17.976Z,52.00
2018-03-18T18:05:49.860Z,52.40
2018-03-18T18:08:21.736Z,52.10
2018-03-18T18:10:53.625Z,52.30
2018-03-18T18:13:25.824Z,51.80
2018-03-18T18:15:57.826Z,51.90
2018-03-18T18:18:29.704Z,52.00
2018-03-18T18:21:01.597Z,52.00
2018-03-18T18:23:34.331Z,52.20
2018-03-18T18:26:06.452Z,52.20
2018-03-18T18:28:38.618Z,51.90
2018-03-18T18:31:10.511Z,52.10
2018-03-18T18:33:42.390Z,51.90
2018-03-18T18:36:14.305Z,52.30
2018-03-18T18:38:46.175Z,51.70
2018-03-18T18:41:18.059Z,51.60
2018-03-18T18:43:49.939Z,51.70
2018-03-18T18:46:22.153Z,52.20
2018-03-18T18:48:54.024Z,52.40
2018-03-18T18:51:25.915Z,51.90
2018-03-18T18:53:57.784Z,52.10
2018-03-18T18:56:29.674Z,52.00
2018-03-18T18:59:02.309Z,51.40
2018-03-18T19:01:34.199Z,51.40
2018-03-18T19:04:06.831Z,51.80
2018-03-18T19:06:38.719Z,51.60
2018-03-18T19:09:11.723Z,55.60
2018-03-18T19:11:44.763Z,50.80
2018-03-18T19:14:16.627Z,51.30
2018-03-18T19:16:48.568Z,51.20
2018-03-18T19:19:20.445Z,51.20
2018-03-18T19:21:52.302Z,51.90
2018-03-18T19:24:24.175Z,52.20
2018-03-18T19:26:56.300Z,52.80
2018-03-18T19:29:28.172Z,51.80
2018-03-18T19:32:00.060Z,51.10
2018-03-18T19:34:31.935Z,51.40
2018-03-18T19:37:03.824Z,50.70
2018-03-18T19:39:36.467Z,50.00
2018-03-18T19:42:08.356Z,50.00
2018-03-18T19:44:40.991Z,49.80
2018-03-18T19:47:12.884Z,49.70
2018-03-18T19:49:44.760Z,50.10
2018-03-18T19:52:17.414Z,48.60
2018-03-18T19:54:49.295Z,48.60
2018-03-18T19:57:21.947Z,48.40
2018-03-18T19:59:54.042Z,48.40
2018-03-18T20:02:26.700Z,48.40
2018-03-18T20:04:58.584Z,48.40
2018-03-18T20:07:30.480Z,49.20
2018-03-18T20:10:02.351Z,49.00
2018-03-18T20:12:34.484Z,49.50
2018-03-18T20:15:06.363Z,50.20
2018-03-18T20:17:38.252Z,49.40
2018-03-18T20:20:10.128Z,48.60
2018-03-18T20:22:42.024Z,48.80
2018-03-18T20:25:13.903Z,49.50
2018-03-18T20:27:45.792Z,48.70
2018-03-18T20:30:17.668Z,49.20
2018-03-18T20:32:49.557Z,48.90
2018-03-18T20:35:21.436Z,47.70
2018-03-18T20:37:53.588Z,47.30
2018-03-18T20:40:25.805Z,47.20
2018-03-18T20:42:57.920Z,47.10
2018-03-18T20:45:29.796Z,47.20
2018-03-18T20:48:01.688Z,47.30
2018-03-18T20:50:33.561Z,47.50
2018-03-18T20:53:05.497Z,48.40
2018-03-18T20:55:37.375Z,47.90
2018-03-18T20:58:09.588Z,48.10
2018-03-18T21:00:41.468Z,47.40
2018-03-18T21:03:13.372Z,47.60
2018-03-18T21:05:45.580Z,47.90
2018-03-18T21:08:17.472Z,48.80
2018-03-18T21:10:49.347Z,47.70
2018-03-18T21:13:21.262Z,47.80
2018-03-18T21:15:53.135Z,47.50
2018-03-18T21:18:25.079Z,46.90
2018-03-18T21:20:56.950Z,46.70
2018-03-18T21:23:28.839Z,47.50
2018-03-18T21:26:00.723Z,50.60
2018-03-18T21:28:32.620Z,47.40
2018-03-18T21:31:04.487Z,47.20
2018-03-18T21:33:36.379Z,47.40
2018-03-18T21:36:08.257Z,46.60
2018-03-18T21:38:40.467Z,47.00
2018-03-18T21:41:12.388Z,46.50
2018-03-18T21:43:44.280Z,47.20
2018-03-18T21:46:16.994Z,46.90
2018-03-18T21:48:48.864Z,46.80
2018-03-18T21:51:20.769Z,46.90
2018-03-18T21:53:52.644Z,47.30
2018-03-18T21:56:24.531Z,46.90
2018-03-18T21:58:56.676Z,47.30
2018-03-18T22:01:28.843Z,47.60
2018-03-18T22:04:00.742Z,48.00
2018-03-18T22:06:32.615Z,47.20
2018-03-18T22:09:04.579Z,46.30
2018-03-18T22:11:36.404Z,48.30
2018-03-18T22:14:08.548Z,47.30
2018-03-18T22:16:40.430Z,47.20
2018-03-18T22:19:12.329Z,46.50
2018-03-18T22:21:44.207Z,47.10
2018-03-18T22:24:16.885Z,48.20
2018-03-18T22:26:49.528Z,47.40
2018-03-18T22:29:21.431Z,47.80
2018-03-18T22:31:54.068Z,47.60
2018-03-18T22:34:25.959Z,47.60
2018-03-18T22:36:58.871Z,47.30
2018-03-18T22:39:30.757Z,47.00
2018-03-18T22:42:02.627Z,46.10
2018-03-18T22:44:34.527Z,45.90
2018-03-18T22:47:07.172Z,45.90
2018-03-18T22:49:39.071Z,45.90
2018-03-18T22:52:11.708Z,47.00
2018-03-18T22:54:43.604Z,47.00
2018-03-18T22:57:16.248Z,46.90
2018-03-18T22:59:48.167Z,46.90
2018-03-18T23:02:20.055Z,46.90
2018-03-18T23:04:52.187Z,46.90
2018-03-18T23:07:24.073Z,47.20
2018-03-18T23:09:55.968Z,47.60
2018-03-18T23:12:27.839Z,47.70
2018-03-18T23:14:59.731Z,46.90
2018-03-18T23:17:31.628Z,48.30
2018-03-18T23:20:03.519Z,47.60
2018-03-18T23:22:35.404Z,47.70
2018-03-18T23:25:08.055Z,48.00
2018-03-18T23:27:39.927Z,48.00
2018-03-18T23:30:12.583Z,47.40
2018-03-18T23:32:44.459Z,47.40
2018-03-18T23:35:17.120Z,47.90
2018-03-18T23:37:48.991Z,47.80
2018-03-18T23:40:20.888Z,47.80
2018-03-18T23:42:52.763Z,48.40
2018-03-18T23:45:24.671Z,48.90
2018-03-18T23:47:56.548Z,48.90
2018-03-18T23:50:30.195Z,49.10
2018-03-18T23:53:02.079Z,49.00
2018-03-18T23:55:33.963Z,49.00
2018-03-18T23:58:06.608Z,49.00
